createdAt,value
2024-03-17T00:00:29.014Z,910.00
2024-03-17T00:01:29.112Z,920.00
2024-03-17T00:02:29.057Z,925.00
2024-03-17T00:03:29.057Z,933.00
2024-03-17T00:04:29.159Z,926.00
2024-03-17T00:05:29.135Z,926.00
2024-03-17T00:06:29.193Z,923.00
2024-03-17T00:07:29.223Z,920.00
2024-03-17T00:08:29.257Z,924.00
2024-03-17T00:09:29.267Z,922.00
2024-03-17T00:10:29.282Z,922.00
2024-03-17T00:11:29.307Z,917.00
2024-03-17T00:12:29.331Z,928.00
2024-03-17T00:13:29.363Z,920.00
2024-03-17T00:14:29.401Z,923.00
2024-03-17T00:15:29.444Z,928.00
2024-03-17T00:16:29.494Z,922.00
2024-03-17T00:17:29.515Z,921.00
2024-03-17T00:18:29.537Z,921.00
2024-03-17T00:19:29.569Z,925.00
2024-03-17T00:20:29.623Z,919.00
2024-03-17T00:21:29.643Z,915.00
2024-03-17T00:22:29.661Z,919.00
2024-03-17T00:23:29.714Z,914.00
2024-03-17T00:24:29.747Z,913.00
2024-03-17T00:25:29.776Z,911.00
2024-03-17T00:26:29.811Z,912.00
2024-03-17T00:27:29.852Z,920.00
2024-03-17T00:28:29.868Z,920.00
2024-03-17T00:29:29.921Z,919.00
2024-03-17T00:30:29.956Z,923.00
2024-03-17T00:31:29.988Z,923.00
2024-03-17T00:32:30.027Z,926.00
2024-03-17T00:33:30.178Z,920.00
2024-03-17T00:34:30.096Z,912.00
2024-03-17T00:35:30.143Z,918.00
2024-03-17T00:36:30.179Z,914.00
2024-03-17T00:37:30.214Z,913.00
2024-03-17T00:38:30.245Z,917.00
2024-03-17T00:39:30.291Z,918.00
2024-03-17T00:40:30.321Z,923.00
2024-03-17T00:41:30.372Z,917.00
2024-03-17T00:42:30.394Z,907.00
2024-03-17T00:43:30.465Z,918.00
2024-03-17T00:44:30.485Z,907.00
2024-03-17T00:45:30.537Z,915.00
2024-03-17T00:46:30.589Z,911.00
2024-03-17T00:47:30.632Z,922.00
2024-03-17T00:48:30.690Z,913.00
2024-03-17T00:49:30.739Z,921.00
2024-03-17T00:50:30.763Z,918.00
2024-03-17T00:51:30.817Z,925.00
2024-03-17T00:52:30.845Z,924.00
2024-03-17T00:53:30.914Z,908.00
2024-03-17T00:54:30.917Z,921.00
2024-03-17T00:55:30.949Z,922.00
2024-03-17T00:56:30.997Z,907.00
2024-03-17T00:57:31.029Z,911.00
2024-03-17T00:58:31.075Z,918.00
2024-03-17T00:59:31.096Z,919.00
2024-03-17T01:00:31.133Z,922.00
2024-03-17T01:01:31.164Z,916.00
2024-03-17T01:02:31.233Z,911.00
2024-03-17T01:03:31.238Z,917.00
2024-03-17T01:04:31.279Z,912.00
2024-03-17T01:05:31.313Z,908.00
2024-03-17T01:06:31.346Z,908.00
2024-03-17T01:07:31.389Z,912.00
2024-03-17T01:08:31.414Z,912.00
2024-03-17T01:09:31.462Z,906.00
2024-03-17T01:10:31.486Z,913.00
2024-03-17T01:11:31.523Z,921.00
2024-03-17T01:12:31.561Z,916.00
2024-03-17T01:13:31.605Z,906.00
2024-03-17T01:14:31.625Z,913.00
2024-03-17T01:15:31.665Z,913.00
2024-03-17T01:16:31.729Z,909.00
2024-03-17T01:17:31.822Z,917.00
2024-03-17T01:18:31.793Z,908.00
2024-03-17T01:19:31.826Z,905.00
2024-03-17T01:20:31.869Z,900.00
2024-03-17T01:21:31.915Z,909.00
2024-03-17T01:22:31.952Z,904.00
2024-03-17T01:23:31.989Z,904.00
2024-03-17T01:24:32.030Z,905.00
2024-03-17T01:25:32.081Z,905.00
2024-03-17T01:26:32.133Z,906.00
2024-03-17T01:27:32.210Z,908.00
2024-03-17T01:28:32.195Z,909.00
2024-03-17T01:29:32.239Z,902.00
2024-03-17T01:30:32.279Z,905.00
2024-03-17T01:31:32.322Z,905.00
2024-03-17T01:32:32.360Z,908.00
2024-03-17T01:33:32.433Z,908.00
2024-03-17T01:34:32.441Z,900.00
2024-03-17T01:35:32.488Z,899.00
2024-03-17T01:36:32.501Z,895.00
2024-03-17T01:37:32.533Z,899.00
2024-03-17T01:38:32.575Z,899.00
2024-03-17T01:39:32.600Z,901.00
2024-03-17T01:40:32.638Z,894.00
2024-03-17T01:41:32.681Z,891.00
2024-03-17T01:42:32.714Z,892.00
2024-03-17T01:43:32.735Z,893.00
2024-03-17T01:44:32.819Z,903.00
2024-03-17T01:45:32.821Z,897.00
2024-03-17T01:46:32.852Z,892.00
2024-03-17T01:47:32.884Z,895.00
2024-03-17T01:48:32.951Z,898.00
2024-03-17T01:49:32.985Z,894.00
2024-03-17T01:50:33.017Z,905.00
2024-03-17T01:51:33.073Z,884.00
2024-03-17T01:52:33.109Z,893.00
2024-03-17T01:53:33.125Z,892.00
2024-03-17T01:54:33.158Z,898.00
2024-03-17T01:55:33.204Z,894.00
2024-03-17T01:56:33.266Z,898.00
2024-03-17T01:57:33.284Z,897.00
2024-03-17T01:58:33.311Z,896.00
2024-03-17T01:59:33.360Z,891.00
2024-03-17T02:00:33.403Z,898.00
2024-03-17T02:01:33.512Z,901.00
2024-03-17T02:02:33.499Z,887.00
2024-03-17T02:03:33.538Z,894.00
2024-03-17T02:04:33.567Z,898.00
2024-03-17T02:05:33.625Z,899.00
2024-03-17T02:06:33.680Z,889.00
2024-03-17T02:07:33.714Z,896.00
2024-03-17T02:08:33.740Z,888.00
2024-03-17T02:09:33.780Z,885.00
2024-03-17T02:10:33.835Z,892.00
2024-03-17T02:11:33.884Z,894.00
2024-03-17T02:12:33.915Z,891.00
2024-03-17T02:13:33.939Z,900.00
2024-03-17T02:14:33.968Z,893.00
2024-03-17T02:15:34.045Z,884.00
2024-03-17T02:16:34.048Z,883.00
2024-03-17T02:17:34.071Z,892.00
2024-03-17T02:18:34.134Z,883.00
2024-03-17T02:19:34.154Z,893.00
2024-03-17T02:20:34.184Z,883.00
2024-03-17T02:21:34.251Z,890.00
2024-03-17T02:22:34.262Z,890.00
2024-03-17T02:23:39.031Z,888.00
2024-03-17T02:24:35.303Z,888.00
2024-03-17T02:25:34.313Z,889.00
2024-03-17T02:26:34.324Z,889.00
2024-03-17T02:27:34.307Z,889.00
2024-03-17T02:28:34.332Z,886.00
2024-03-17T02:29:34.325Z,888.00
2024-03-17T02:30:34.314Z,889.00
2024-03-17T02:31:34.358Z,885.00
2024-03-17T02:32:34.317Z,876.00
2024-03-17T02:33:34.317Z,882.00
2024-03-17T02:34:34.329Z,877.00
2024-03-17T02:35:34.339Z,873.00
2024-03-17T02:36:34.334Z,885.00
2024-03-17T02:37:34.363Z,882.00
2024-03-17T02:38:34.436Z,883.00
2024-03-17T02:39:34.452Z,881.00
2024-03-17T02:40:34.481Z,876.00
2024-03-17T02:41:34.507Z,875.00
2024-03-17T02:42:34.569Z,880.00
2024-03-17T02:43:34.606Z,888.00
2024-03-17T02:44:34.625Z,887.00
2024-03-17T02:45:34.672Z,883.00
2024-03-17T02:46:34.783Z,875.00
2024-03-17T02:47:34.746Z,886.00
2024-03-17T02:48:34.797Z,880.00
2024-03-17T02:49:34.831Z,876.00
2024-03-17T02:50:34.869Z,881.00
2024-03-17T02:51:34.916Z,873.00
2024-03-17T02:52:34.973Z,884.00
2024-03-17T02:53:34.999Z,878.00
2024-03-17T02:54:36.584Z,885.00
2024-03-17T02:55:35.045Z,883.00
2024-03-17T02:56:35.052Z,879.00
2024-03-17T02:57:35.054Z,877.00
2024-03-17T02:58:35.051Z,878.00
2024-03-17T02:59:35.062Z,875.00
2024-03-17T03:00:35.045Z,874.00
2024-03-17T03:01:35.067Z,878.00
2024-03-17T03:02:35.059Z,871.00
2024-03-17T03:03:35.050Z,870.00
2024-03-17T03:04:35.059Z,876.00
2024-03-17T03:05:35.066Z,875.00
2024-03-17T03:06:35.076Z,866.00
2024-03-17T03:07:35.065Z,870.00
2024-03-17T03:08:35.070Z,883.00
2024-03-17T03:09:35.113Z,866.00
2024-03-17T03:10:35.068Z,873.00
2024-03-17T03:11:35.083Z,865.00
2024-03-17T03:12:35.064Z,861.00
2024-03-17T03:13:35.070Z,865.00
2024-03-17T03:14:35.073Z,867.00
2024-03-17T03:15:35.081Z,864.00
2024-03-17T03:16:35.069Z,855.00
2024-03-17T03:17:35.079Z,864.00
2024-03-17T03:18:35.087Z,872.00
2024-03-17T03:19:35.084Z,866.00
2024-03-17T03:20:35.085Z,860.00
2024-03-17T03:21:35.090Z,864.00
2024-03-17T03:22:35.086Z,864.00
2024-03-17T03:23:35.121Z,858.00
2024-03-17T03:24:35.100Z,857.00
2024-03-17T03:25:35.092Z,865.00
2024-03-17T03:26:35.100Z,872.00
2024-03-17T03:27:35.101Z,870.00
2024-03-17T03:28:35.098Z,868.00
2024-03-17T03:29:35.105Z,864.00
2024-03-17T03:30:35.170Z,866.00
2024-03-17T03:31:35.116Z,862.00
2024-03-17T03:32:35.108Z,858.00
2024-03-17T03:33:35.100Z,860.00
2024-03-17T03:34:35.102Z,865.00
2024-03-17T03:35:35.115Z,860.00
2024-03-17T03:36:35.120Z,862.00
2024-03-17T03:37:35.105Z,860.00
2024-03-17T03:38:35.132Z,859.00
2024-03-17T03:39:35.189Z,860.00
2024-03-17T03:40:35.221Z,862.00
2024-03-17T03:41:35.265Z,857.00
2024-03-17T03:42:35.326Z,860.00
2024-03-17T03:43:35.367Z,851.00
2024-03-17T03:44:35.412Z,856.00
2024-03-17T03:45:35.444Z,853.00
2024-03-17T03:46:35.485Z,855.00
2024-03-17T03:47:35.528Z,857.00
2024-03-17T03:48:35.575Z,847.00
2024-03-17T03:49:35.611Z,856.00
2024-03-17T03:50:35.657Z,853.00
2024-03-17T03:51:35.694Z,851.00
2024-03-17T03:52:35.738Z,843.00
2024-03-17T03:53:35.813Z,850.00
2024-03-17T03:54:35.824Z,851.00
2024-03-17T03:55:35.863Z,842.00
2024-03-17T03:56:35.906Z,843.00
2024-03-17T03:57:35.935Z,839.00
2024-03-17T03:58:35.983Z,848.00
2024-03-17T03:59:36.031Z,850.00
2024-03-17T04:00:36.073Z,847.00
2024-03-17T04:01:36.114Z,842.00
2024-03-17T04:02:36.154Z,849.00
2024-03-17T04:03:36.197Z,850.00
2024-03-17T04:04:36.231Z,840.00
2024-03-17T04:05:36.301Z,835.00
2024-03-17T04:06:36.330Z,844.00
2024-03-17T04:07:36.362Z,841.00
2024-03-17T04:08:36.423Z,827.00
2024-03-17T04:09:36.465Z,838.00
2024-03-17T04:10:36.509Z,838.00
2024-03-17T04:11:36.567Z,843.00
2024-03-17T04:12:36.604Z,844.00
2024-03-17T04:13:36.643Z,835.00
2024-03-17T04:14:36.754Z,845.00
2024-03-17T04:15:36.727Z,832.00
2024-03-17T04:16:36.793Z,837.00
2024-03-17T04:17:36.814Z,831.00
2024-03-17T04:18:36.851Z,832.00
2024-03-17T04:19:36.899Z,825.00
2024-03-17T04:20:36.954Z,840.00
2024-03-17T04:21:36.995Z,833.00
2024-03-17T04:22:37.036Z,828.00
2024-03-17T04:23:37.072Z,834.00
2024-03-17T04:24:37.135Z,831.00
2024-03-17T04:25:37.166Z,832.00
2024-03-17T04:26:37.212Z,829.00
2024-03-17T04:27:37.253Z,829.00
2024-03-17T04:28:37.336Z,830.00
2024-03-17T04:29:37.355Z,831.00
2024-03-17T04:30:37.414Z,827.00
2024-03-17T04:31:37.429Z,831.00
2024-03-17T04:32:37.488Z,827.00
2024-03-17T04:33:37.553Z,822.00
2024-03-17T04:34:37.563Z,827.00
2024-03-17T04:35:37.600Z,823.00
2024-03-17T04:36:37.659Z,823.00
2024-03-17T04:37:37.707Z,821.00
2024-03-17T04:38:37.731Z,831.00
2024-03-17T04:39:37.780Z,826.00
2024-03-17T04:40:37.812Z,812.00
2024-03-17T04:41:37.870Z,827.00
2024-03-17T04:42:37.913Z,820.00
2024-03-17T04:43:37.997Z,817.00
2024-03-17T04:44:37.991Z,825.00
2024-03-17T04:45:38.032Z,813.00
2024-03-17T04:46:38.089Z,821.00
2024-03-17T04:47:38.126Z,812.00
2024-03-17T04:48:45.431Z,600.00
2024-03-17T04:49:45.420Z,600.00
2024-03-17T04:50:45.426Z,600.00
2024-03-17T04:51:45.434Z,600.00
2024-03-17T04:52:45.421Z,600.00
2024-03-17T04:53:45.425Z,605.00
2024-03-17T04:54:45.450Z,603.00
2024-03-17T04:55:45.451Z,601.00
2024-03-17T04:56:45.525Z,602.00
2024-03-17T04:57:45.431Z,600.00
2024-03-17T04:58:45.455Z,602.00
2024-03-17T04:59:45.467Z,603.00
2024-03-17T05:00:46.198Z,602.00
2024-03-17T05:01:45.453Z,601.00
2024-03-17T05:02:45.457Z,602.00
2024-03-17T05:03:45.441Z,601.00
2024-03-17T05:04:45.445Z,600.00
2024-03-17T05:05:45.480Z,605.00
2024-03-17T05:06:45.456Z,603.00
2024-03-17T05:07:45.444Z,605.00
2024-03-17T05:08:45.445Z,600.00
2024-03-17T05:09:45.459Z,600.00
2024-03-17T05:10:45.473Z,609.00
2024-03-17T05:11:45.474Z,609.00
2024-03-17T05:12:45.468Z,606.00
2024-03-17T05:13:45.478Z,604.00
2024-03-17T05:14:45.474Z,608.00
2024-03-17T05:15:45.482Z,603.00
2024-03-17T05:16:45.494Z,605.00
2024-03-17T05:17:45.489Z,602.00
2024-03-17T05:18:45.611Z,605.00
2024-03-17T05:19:45.482Z,605.00
2024-03-17T05:20:45.548Z,607.00
2024-03-17T05:21:45.620Z,606.00
2024-03-17T05:22:45.672Z,602.00
2024-03-17T05:23:45.752Z,606.00
2024-03-17T05:24:45.805Z,606.00
2024-03-17T05:25:45.846Z,603.00
2024-03-17T05:26:45.911Z,603.00
2024-03-17T05:27:45.949Z,604.00
2024-03-17T05:28:46.056Z,603.00
2024-03-17T05:29:46.055Z,605.00
2024-03-17T05:30:46.100Z,602.00
2024-03-17T05:31:46.163Z,605.00
2024-03-17T05:32:46.216Z,604.00
2024-03-17T05:33:46.252Z,606.00
2024-03-17T05:34:46.321Z,604.00
2024-03-17T05:35:46.394Z,604.00
2024-03-17T05:36:46.470Z,606.00
2024-03-17T05:37:46.501Z,601.00
2024-03-17T05:38:46.520Z,604.00
2024-03-17T05:39:46.573Z,605.00
2024-03-17T05:40:46.724Z,604.00
2024-03-17T05:41:46.701Z,605.00
2024-03-17T05:42:46.729Z,605.00
2024-03-17T05:43:46.790Z,604.00
2024-03-17T05:44:46.838Z,603.00
2024-03-17T05:45:46.883Z,605.00
2024-03-17T05:46:46.935Z,604.00
2024-03-17T05:47:47.013Z,602.00
2024-03-17T05:48:47.036Z,604.00
2024-03-17T05:49:47.093Z,606.00
2024-03-17T05:50:47.157Z,605.00
2024-03-17T05:51:47.216Z,602.00
2024-03-17T05:52:47.259Z,604.00
2024-03-17T05:53:47.329Z,607.00
2024-03-17T05:54:47.354Z,606.00
2024-03-17T05:55:47.394Z,608.00
2024-03-17T05:56:47.451Z,605.00
2024-03-17T05:57:47.521Z,607.00
2024-03-17T05:58:47.539Z,605.00
2024-03-17T05:59:47.599Z,602.00
2024-03-17T06:00:47.644Z,603.00
2024-03-17T06:01:47.704Z,606.00
2024-03-17T06:02:47.747Z,606.00
2024-03-17T06:03:47.801Z,602.00
2024-03-17T06:04:47.848Z,605.00
2024-03-17T06:05:47.892Z,606.00
2024-03-17T06:06:47.960Z,604.00
2024-03-17T06:07:48.008Z,607.00
2024-03-17T06:08:48.030Z,602.00
2024-03-17T06:09:48.099Z,604.00
2024-03-17T06:10:48.119Z,605.00
2024-03-17T06:11:48.188Z,605.00
2024-03-17T06:12:48.211Z,606.00
2024-03-17T06:13:48.277Z,608.00
2024-03-17T06:14:48.299Z,607.00
2024-03-17T06:15:48.358Z,608.00
2024-03-17T06:16:49.024Z,609.00
2024-03-17T06:17:48.451Z,607.00
2024-03-17T06:18:48.523Z,605.00
2024-03-17T06:19:48.554Z,611.00
2024-03-17T06:20:48.602Z,607.00
2024-03-17T06:21:48.649Z,602.00
2024-03-17T06:22:48.738Z,606.00
2024-03-17T06:23:48.767Z,607.00
2024-03-17T06:24:48.878Z,604.00
2024-03-17T06:25:48.866Z,607.00
2024-03-17T06:26:48.915Z,605.00
2024-03-17T06:27:48.984Z,605.00
2024-03-17T06:28:48.999Z,605.00
2024-03-17T06:29:49.047Z,605.00
2024-03-17T06:30:49.121Z,607.00
2024-03-17T06:31:49.145Z,604.00
2024-03-17T06:32:49.218Z,604.00
2024-03-17T06:33:49.229Z,605.00
2024-03-17T06:34:49.281Z,605.00
2024-03-17T06:35:49.338Z,602.00
2024-03-17T06:36:49.376Z,602.00
2024-03-17T06:37:49.424Z,606.00
2024-03-17T06:38:49.472Z,607.00
2024-03-17T06:39:49.512Z,604.00
2024-03-17T06:40:49.568Z,602.00
2024-03-17T06:41:49.621Z,606.00
2024-03-17T06:42:49.670Z,604.00
2024-03-17T06:43:49.745Z,604.00
2024-03-17T06:44:49.790Z,603.00
2024-03-17T06:45:49.820Z,603.00
2024-03-17T06:46:49.896Z,608.00
2024-03-17T06:47:49.943Z,602.00
2024-03-17T06:48:50.019Z,604.00
2024-03-17T06:49:50.074Z,606.00
2024-03-17T06:50:50.150Z,605.00
2024-03-17T06:51:50.178Z,606.00
2024-03-17T06:52:50.216Z,604.00
2024-03-17T06:53:50.275Z,608.00
2024-03-17T06:54:50.321Z,606.00
2024-03-17T06:55:50.366Z,608.00
2024-03-17T06:56:50.413Z,606.00
2024-03-17T06:57:50.624Z,603.00
2024-03-17T06:58:50.519Z,606.00
2024-03-17T06:59:50.568Z,605.00
2024-03-17T07:00:50.620Z,606.00
2024-03-17T07:01:50.717Z,605.00
2024-03-17T07:02:50.719Z,607.00
2024-03-17T07:03:50.765Z,608.00
2024-03-17T07:04:50.820Z,607.00
2024-03-17T07:05:50.866Z,605.00
2024-03-17T07:06:50.916Z,607.00
2024-03-17T07:07:50.978Z,607.00
2024-03-17T07:08:51.096Z,603.00
2024-03-17T07:09:51.084Z,608.00
2024-03-17T07:10:51.111Z,603.00
2024-03-17T07:11:51.184Z,600.00
2024-03-17T07:12:51.211Z,604.00
2024-03-17T07:13:51.265Z,604.00
2024-03-17T07:14:51.316Z,606.00
2024-03-17T07:15:51.353Z,609.00
2024-03-17T07:16:51.402Z,605.00
2024-03-17T07:17:51.452Z,605.00
2024-03-17T07:18:51.505Z,605.00
2024-03-17T07:19:51.539Z,605.00
2024-03-17T07:20:51.611Z,606.00
2024-03-17T07:21:51.673Z,603.00
2024-03-17T07:22:51.706Z,607.00
2024-03-17T07:23:51.766Z,604.00
2024-03-17T07:24:51.820Z,608.00
2024-03-17T07:25:51.864Z,602.00
2024-03-17T07:26:51.963Z,606.00
2024-03-17T07:27:51.996Z,608.00
2024-03-17T07:28:52.053Z,608.00
2024-03-17T07:29:52.092Z,605.00
2024-03-17T07:30:52.187Z,606.00
2024-03-17T07:31:52.215Z,611.00
2024-03-17T07:32:52.283Z,605.00
2024-03-17T07:33:52.325Z,607.00
2024-03-17T07:34:52.390Z,605.00
2024-03-17T07:35:52.473Z,607.00
2024-03-17T07:36:52.508Z,605.00
2024-03-17T07:37:52.562Z,609.00
2024-03-17T07:38:52.627Z,605.00
2024-03-17T07:39:52.699Z,605.00
2024-03-17T07:40:52.759Z,608.00
2024-03-17T07:41:52.808Z,607.00
2024-03-17T07:42:52.855Z,603.00
2024-03-17T07:43:52.936Z,608.00
2024-03-17T07:44:52.951Z,603.00
2024-03-17T07:45:53.016Z,605.00
2024-03-17T07:46:53.053Z,605.00
2024-03-17T07:47:53.095Z,603.00
2024-03-17T07:48:53.138Z,602.00
2024-03-17T07:49:53.172Z,604.00
2024-03-17T07:50:53.226Z,608.00
2024-03-17T07:51:53.250Z,608.00
2024-03-17T07:52:53.374Z,603.00
2024-03-17T07:53:53.336Z,603.00
2024-03-17T07:54:53.382Z,607.00
2024-03-17T07:55:53.421Z,604.00
2024-03-17T07:56:53.466Z,605.00
2024-03-17T07:57:53.517Z,608.00
2024-03-17T07:58:53.577Z,602.00
2024-03-17T07:59:53.651Z,607.00
2024-03-17T08:00:53.637Z,603.00
2024-03-17T08:01:53.667Z,606.00
2024-03-17T08:02:53.707Z,610.00
2024-03-17T08:03:53.770Z,608.00
2024-03-17T08:04:53.810Z,603.00
2024-03-17T08:05:53.812Z,609.00
2024-03-17T08:06:53.838Z,603.00
2024-03-17T08:07:53.891Z,608.00
2024-03-17T08:08:53.922Z,602.00
2024-03-17T08:09:54.004Z,601.00
2024-03-17T08:10:54.061Z,607.00
2024-03-17T08:11:54.026Z,605.00
2024-03-17T08:12:55.637Z,603.00
2024-03-17T08:13:54.137Z,602.00
2024-03-17T08:14:54.188Z,604.00
2024-03-17T08:15:54.211Z,603.00
2024-03-17T08:16:54.246Z,604.00
2024-03-17T08:17:54.292Z,604.00
2024-03-17T08:18:54.316Z,606.00
2024-03-17T08:19:54.392Z,604.00
2024-03-17T08:20:54.405Z,606.00
2024-03-17T08:21:54.422Z,606.00
2024-03-17T08:22:54.485Z,606.00
2024-03-17T08:23:54.506Z,604.00
2024-03-17T08:24:54.578Z,606.00
2024-03-17T08:25:54.591Z,602.00
2024-03-17T08:26:54.630Z,601.00
2024-03-17T08:27:54.661Z,606.00
2024-03-17T08:28:54.693Z,603.00
2024-03-17T08:29:54.745Z,606.00
2024-03-17T08:30:54.813Z,602.00
2024-03-17T08:31:54.817Z,604.00
2024-03-17T08:32:54.879Z,606.00
2024-03-17T08:33:54.879Z,605.00
2024-03-17T08:34:54.906Z,602.00
2024-03-17T08:35:54.965Z,603.00
2024-03-17T08:36:54.975Z,603.00
2024-03-17T08:37:55.089Z,605.00
2024-03-17T08:38:55.052Z,609.00
2024-03-17T08:39:55.103Z,605.00
2024-03-17T08:40:55.098Z,602.00
2024-03-17T08:41:55.135Z,600.00
2024-03-17T08:42:55.170Z,608.00
2024-03-17T08:43:55.200Z,606.00
2024-03-17T08:44:57.423Z,602.00
2024-03-17T08:45:55.229Z,605.00
2024-03-17T08:46:55.234Z,605.00
2024-03-17T08:47:55.243Z,604.00
2024-03-17T08:48:55.246Z,605.00
2024-03-17T08:49:55.253Z,606.00
2024-03-17T08:50:55.245Z,602.00
2024-03-17T08:51:55.261Z,604.00
2024-03-17T08:52:55.250Z,604.00
2024-03-17T08:53:55.255Z,603.00
2024-03-17T08:54:55.255Z,605.00
2024-03-17T08:55:55.265Z,601.00
2024-03-17T08:56:55.292Z,606.00
2024-03-17T08:57:55.260Z,602.00
2024-03-17T08:58:55.278Z,601.00
2024-03-17T08:59:55.303Z,605.00
2024-03-17T09:00:55.267Z,602.00
2024-03-17T09:01:55.283Z,602.00
2024-03-17T09:02:55.299Z,603.00
2024-03-17T09:03:55.280Z,604.00
2024-03-17T09:04:55.274Z,602.00
2024-03-17T09:05:55.276Z,605.00
2024-03-17T09:06:55.272Z,602.00
2024-03-17T09:07:55.342Z,602.00
2024-03-17T09:08:55.280Z,604.00
2024-03-17T09:09:55.293Z,603.00
2024-03-17T09:10:55.295Z,604.00
2024-03-17T09:11:55.301Z,603.00
2024-03-17T09:12:55.286Z,600.00
2024-03-17T09:13:55.281Z,601.00
2024-03-17T09:14:55.320Z,602.00
2024-03-17T09:15:55.289Z,603.00
2024-03-17T09:16:55.293Z,605.00
2024-03-17T09:17:55.295Z,600.00
2024-03-17T09:18:55.311Z,605.00
2024-03-17T09:19:55.298Z,605.00
2024-03-17T09:20:55.644Z,605.00
2024-03-17T09:21:55.395Z,607.00
2024-03-17T09:22:55.301Z,604.00
2024-03-17T09:23:55.300Z,603.00
2024-03-17T09:24:55.300Z,599.00
2024-03-17T09:25:55.310Z,607.00
2024-03-17T09:26:55.304Z,607.00
2024-03-17T09:27:55.317Z,605.00
2024-03-17T09:28:55.321Z,611.00
2024-03-17T09:29:55.312Z,604.00
2024-03-17T09:30:55.303Z,606.00
2024-03-17T09:31:55.301Z,602.00
2024-03-17T09:32:55.358Z,608.00
2024-03-17T09:33:55.307Z,608.00
2024-03-17T09:34:55.334Z,605.00
2024-03-17T09:35:55.348Z,603.00
2024-03-17T09:36:55.325Z,602.00
2024-03-17T09:37:55.315Z,604.00
2024-03-17T09:38:55.307Z,605.00
2024-03-17T09:39:55.357Z,603.00
2024-03-17T09:40:55.348Z,604.00
2024-03-17T09:41:55.313Z,605.00
2024-03-17T09:42:55.340Z,608.00
2024-03-17T09:43:55.443Z,603.00
2024-03-17T09:44:55.412Z,608.00
2024-03-17T09:45:55.423Z,606.00
2024-03-17T09:46:55.515Z,612.00
2024-03-17T09:47:55.503Z,609.00
2024-03-17T09:48:58.160Z,606.00
2024-03-17T09:49:55.558Z,612.00
2024-03-17T09:50:55.558Z,609.00
2024-03-17T09:51:55.559Z,605.00
2024-03-17T09:52:55.573Z,609.00
2024-03-17T09:53:55.556Z,605.00
2024-03-17T09:54:55.663Z,608.00
2024-03-17T09:55:55.556Z,605.00
2024-03-17T09:56:55.595Z,605.00
2024-03-17T09:57:55.570Z,608.00
2024-03-17T09:58:55.574Z,608.00
2024-03-17T09:59:55.566Z,603.00
2024-03-17T10:00:55.574Z,604.00
2024-03-17T10:01:55.565Z,610.00
2024-03-17T10:02:55.580Z,611.00
2024-03-17T10:03:55.581Z,608.00
2024-03-17T10:04:55.581Z,608.00
2024-03-17T10:05:55.642Z,609.00
2024-03-17T10:06:55.579Z,607.00
2024-03-17T10:07:55.576Z,604.00
2024-03-17T10:08:55.615Z,607.00
2024-03-17T10:09:55.596Z,608.00
2024-03-17T10:10:55.585Z,610.00
2024-03-17T10:11:55.592Z,607.00
2024-03-17T10:12:55.618Z,610.00
2024-03-17T10:13:55.582Z,608.00
2024-03-17T10:14:55.591Z,608.00
2024-03-17T10:15:55.587Z,608.00
2024-03-17T10:16:55.648Z,608.00
2024-03-17T10:17:55.664Z,609.00
2024-03-17T10:18:55.600Z,607.00
2024-03-17T10:20:00.204Z,608.00
2024-03-17T10:20:56.625Z,609.00
2024-03-17T10:21:55.605Z,609.00
2024-03-17T10:22:55.600Z,609.00
2024-03-17T10:23:55.628Z,609.00
2024-03-17T10:24:55.639Z,615.00
2024-03-17T10:25:55.616Z,611.00
2024-03-17T10:26:55.685Z,611.00
2024-03-17T10:27:55.650Z,605.00
2024-03-17T10:28:55.615Z,609.00
2024-03-17T10:29:55.624Z,611.00
2024-03-17T10:30:55.627Z,610.00
2024-03-17T10:31:57.811Z,610.00
2024-03-17T10:32:55.644Z,609.00
2024-03-17T10:34:04.328Z,609.00
2024-03-17T10:34:56.638Z,609.00
2024-03-17T10:35:55.646Z,609.00
2024-03-17T10:36:55.665Z,611.00
2024-03-17T10:37:55.699Z,611.00
2024-03-17T10:38:55.649Z,613.00
2024-03-17T10:39:55.687Z,613.00
2024-03-17T10:40:55.644Z,612.00
2024-03-17T10:41:55.662Z,614.00
2024-03-17T10:42:55.642Z,612.00
2024-03-17T10:43:55.664Z,613.00
2024-03-17T10:44:55.656Z,613.00
2024-03-17T10:45:55.663Z,614.00
2024-03-17T10:46:55.678Z,612.00
2024-03-17T10:47:55.665Z,613.00
2024-03-17T10:48:55.747Z,612.00
2024-03-17T10:49:55.702Z,614.00
2024-03-17T10:50:55.768Z,612.00
2024-03-17T10:51:55.779Z,617.00
2024-03-17T10:52:55.874Z,616.00
2024-03-17T10:53:55.879Z,618.00
2024-03-17T10:54:55.912Z,614.00
2024-03-17T10:55:55.960Z,616.00
2024-03-17T10:56:55.995Z,614.00
2024-03-17T10:57:56.039Z,614.00
2024-03-17T10:58:56.076Z,614.00
2024-03-17T10:59:56.172Z,616.00
2024-03-17T11:00:56.171Z,616.00
2024-03-17T11:01:56.208Z,615.00
2024-03-17T11:02:56.247Z,615.00
2024-03-17T11:03:56.292Z,613.00
2024-03-17T11:04:56.342Z,616.00
2024-03-17T11:05:56.395Z,617.00
2024-03-17T11:06:56.411Z,616.00
2024-03-17T11:07:56.481Z,618.00
2024-03-17T11:08:56.505Z,619.00
2024-03-17T11:09:56.543Z,615.00
2024-03-17T11:10:56.618Z,617.00
2024-03-17T11:11:56.596Z,617.00
2024-03-17T11:12:56.641Z,616.00
2024-03-17T11:13:56.680Z,613.00
2024-03-17T11:14:56.740Z,613.00
2024-03-17T11:15:56.782Z,614.00
2024-03-17T11:16:56.785Z,617.00
2024-03-17T11:17:58.651Z,614.00
2024-03-17T11:18:56.882Z,616.00
2024-03-17T11:19:56.915Z,613.00
2024-03-17T11:20:56.973Z,615.00
2024-03-17T11:21:56.996Z,616.00
2024-03-17T11:22:57.026Z,615.00
2024-03-17T11:23:57.052Z,616.00
2024-03-17T11:24:57.090Z,617.00
2024-03-17T11:25:57.132Z,615.00
2024-03-17T11:26:57.156Z,618.00
2024-03-17T11:27:57.200Z,614.00
2024-03-17T11:28:57.240Z,617.00
2024-03-17T11:29:57.265Z,614.00
2024-03-17T11:30:57.297Z,616.00
2024-03-17T11:31:57.346Z,614.00
2024-03-17T11:32:57.405Z,618.00
2024-03-17T11:33:57.391Z,617.00
2024-03-17T11:34:57.463Z,619.00
2024-03-17T11:35:57.481Z,616.00
2024-03-17T11:36:57.553Z,617.00
2024-03-17T11:37:57.573Z,618.00
2024-03-17T11:38:57.608Z,619.00
2024-03-17T11:39:57.665Z,622.00
2024-03-17T11:40:57.700Z,616.00
2024-03-17T11:41:57.738Z,622.00
2024-03-17T11:42:57.788Z,618.00
2024-03-17T11:43:57.840Z,618.00
2024-03-17T11:44:57.906Z,620.00
2024-03-17T11:45:57.933Z,620.00
2024-03-17T11:47:07.733Z,617.00
2024-03-17T11:47:58.971Z,618.00
2024-03-17T11:48:57.983Z,618.00
2024-03-17T11:49:57.947Z,619.00
2024-03-17T11:50:57.953Z,621.00
2024-03-17T11:51:57.946Z,623.00
2024-03-17T11:52:57.958Z,622.00
2024-03-17T11:53:57.964Z,618.00
2024-03-17T11:54:57.968Z,620.00
2024-03-17T11:55:57.966Z,619.00
2024-03-17T11:56:57.954Z,619.00
2024-03-17T11:57:58.006Z,618.00
2024-03-17T11:58:57.953Z,618.00
2024-03-17T11:59:57.981Z,621.00
2024-03-17T12:00:57.967Z,621.00
2024-03-17T12:01:57.978Z,620.00
2024-03-17T12:03:04.121Z,621.00
2024-03-17T12:03:59.001Z,621.00
2024-03-17T12:04:58.021Z,621.00
2024-03-17T12:05:58.048Z,621.00
2024-03-17T12:06:58.012Z,620.00
2024-03-17T12:07:58.029Z,620.00
2024-03-17T12:08:58.020Z,621.00
2024-03-17T12:09:58.010Z,619.00
2024-03-17T12:10:58.011Z,619.00
2024-03-17T12:11:58.002Z,619.00
2024-03-17T12:12:58.012Z,621.00
2024-03-17T12:13:58.015Z,616.00
2024-03-17T12:14:58.009Z,616.00
2024-03-17T12:15:58.022Z,616.00
2024-03-17T12:16:58.006Z,614.00
2024-03-17T12:17:58.012Z,615.00
2024-03-17T12:18:58.060Z,620.00
2024-03-17T12:19:58.075Z,615.00
2024-03-17T12:20:58.121Z,614.00
2024-03-17T12:21:58.162Z,618.00
2024-03-17T12:22:58.238Z,617.00
2024-03-17T12:23:58.738Z,618.00
2024-03-17T12:24:58.261Z,617.00
2024-03-17T12:25:58.319Z,614.00
2024-03-17T12:26:58.323Z,614.00
2024-03-17T12:27:58.358Z,614.00
2024-03-17T12:28:58.539Z,612.00